sensor_id;sensor_type;location;lat;lon;timestamp;pressure;altitude;pressure_sealevel;temperature
19061;BMP280;9663;48.996;8.334;2022-11-02T00:00:28;100897.94;;;14.49
19061;BMP280;9663;48.996;8.334;2022-11-02T00:02:55;100894.53;;;14.48
19061;BMP280;9663;48.996;8.334;2022-11-02T00:05:21;100892.00;;;14.48
19061;BMP280;9663;48.996;8.334;2022-11-02T00:07:51;100886.00;;;14.48
19061;BMP280;9663;48.996;8.334;2022-11-02T00:10:19;100891.13;;;14.48
19061;BMP280;9663;48.996;8.334;2022-11-02T00:12:45;100892.00;;;14.48
19061;BMP280;9663;48.996;8.334;2022-11-02T00:15:11;100886.00;;;14.48
19061;BMP280;9663;48.996;8.334;2022-11-02T00:17:45;100889.44;;;14.47
19061;BMP280;9663;48.996;8.334;2022-11-02T00:20:14;100877.53;;;14.46
19061;BMP280;9663;48.996;8.334;2022-11-02T00:22:43;100878.41;;;14.45
19061;BMP280;9663;48.996;8.334;2022-11-02T00:25:14;100882.66;;;14.44
19061;BMP280;9663;48.996;8.334;2022-11-02T00:27:42;100874.16;;;14.42
19061;BMP280;9663;48.996;8.334;2022-11-02T00:30:09;100881.81;;;14.42
19061;BMP280;9663;48.996;8.334;2022-11-02T00:32:35;100879.28;;;14.42
19061;BMP280;9663;48.996;8.334;2022-11-02T00:35:00;100876.72;;;14.41
19061;BMP280;9663;48.996;8.334;2022-11-02T00:37:26;100874.19;;;14.39
19061;BMP280;9663;48.996;8.334;2022-11-02T00:39:52;100875.06;;;14.38
19061;BMP280;9663;48.996;8.334;2022-11-02T00:42:17;100873.34;;;14.39
19061;BMP280;9663;48.996;8.334;2022-11-02T00:44:43;100884.41;;;14.38
19061;BMP280;9663;48.996;8.334;2022-11-02T00:47:09;100884.44;;;14.36
19061;BMP280;9663;48.996;8.334;2022-11-02T00:49:36;100883.56;;;14.37
19061;BMP280;9663;48.996;8.334;2022-11-02T00:52:02;100888.69;;;14.37
19061;BMP280;9663;48.996;8.334;2022-11-02T00:54:27;100888.69;;;14.37
19061;BMP280;9663;48.996;8.334;2022-11-02T00:56:53;100882.75;;;14.37
19061;BMP280;9663;48.996;8.334;2022-11-02T00:59:19;100888.69;;;14.37
19061;BMP280;9663;48.996;8.334;2022-11-02T01:01:45;100889.50;;;14.39
19061;BMP280;9663;48.996;8.334;2022-11-02T01:04:16;100888.66;;;14.40
19061;BMP280;9663;48.996;8.334;2022-11-02T01:06:43;100880.16;;;14.40
19061;BMP280;9663;48.996;8.334;2022-11-02T01:09:09;100886.94;;;14.42
19061;BMP280;9663;48.996;8.334;2022-11-02T01:11:36;100882.66;;;14.43
19061;BMP280;9663;48.996;8.334;2022-11-02T01:14:02;100881.81;;;14.44
19061;BMP280;9663;48.996;8.334;2022-11-02T01:16:27;100874.16;;;14.45
19061;BMP280;9663;48.996;8.334;2022-11-02T01:18:55;100880.91;;;14.49
19061;BMP280;9663;48.996;8.334;2022-11-02T01:21:22;100869.84;;;14.50
19061;BMP280;9663;48.996;8.334;2022-11-02T01:23:47;100874.91;;;14.53
19061;BMP280;9663;48.996;8.334;2022-11-02T01:26:13;100862.97;;;14.55
19061;BMP280;9663;48.996;8.334;2022-11-02T01:28:39;100868.88;;;14.58
19061;BMP280;9663;48.996;8.334;2022-11-02T01:31:07;100867.16;;;14.60
19061;BMP280;9663;48.996;8.334;2022-11-02T01:33:33;100859.50;;;14.62
19061;BMP280;9663;48.996;8.334;2022-11-02T01:36:03;100850.09;;;14.65
19061;BMP280;9663;48.996;8.334;2022-11-02T01:38:32;100846.66;;;14.68
19061;BMP280;9663;48.996;8.334;2022-11-02T01:40:58;100850.03;;;14.71
19061;BMP280;9663;48.996;8.334;2022-11-02T01:43:28;100855.09;;;14.76
19061;BMP280;9663;48.996;8.334;2022-11-02T01:46:12;100847.38;;;14.79
19061;BMP280;9663;48.996;8.334;2022-11-02T01:48:49;100838.81;;;14.84
19061;BMP280;9663;48.996;8.334;2022-11-02T01:51:26;100844.72;;;14.88
19061;BMP280;9663;48.996;8.334;2022-11-02T01:53:56;100841.25;;;14.90
19061;BMP280;9663;48.996;8.334;2022-11-02T01:56:29;100843.75;;;14.96
19061;BMP280;9663;48.996;8.334;2022-11-02T01:59:02;100841.16;;;15.00
19061;BMP280;9663;48.996;8.334;2022-11-02T02:01:30;100841.13;;;15.02
19061;BMP280;9663;48.996;8.334;2022-11-02T02:03:56;100835.09;;;15.06
19061;BMP280;9663;48.996;8.334;2022-11-02T02:06:23;100830.81;;;15.08
19061;BMP280;9663;48.996;8.334;2022-11-02T02:08:52;100830.75;;;15.12
19061;BMP280;9663;48.996;8.334;2022-11-02T02:11:35;100838.44;;;15.12
19061;BMP280;9663;48.996;8.334;2022-11-02T02:14:10;100840.09;;;15.16
19061;BMP280;9663;48.996;8.334;2022-11-02T02:26:09;100833.28;;;15.14
19061;BMP280;9663;48.996;8.334;2022-11-02T02:28:46;100837.53;;;15.18
19061;BMP280;9663;48.996;8.334;2022-11-02T02:31:36;100823.00;;;15.20
19061;BMP280;9663;48.996;8.334;2022-11-02T02:34:28;100816.19;;;15.20
19061;BMP280;9663;48.996;8.334;2022-11-02T02:37:05;100817.00;;;15.24
19061;BMP280;9663;48.996;8.334;2022-11-02T02:39:49;100823.75;;;15.26
19061;BMP280;9663;48.996;8.334;2022-11-02T02:45:19;100805.84;;;15.28
19061;BMP280;9663;48.996;8.334;2022-11-02T02:47:57;100809.22;;;15.30
19061;BMP280;9663;48.996;8.334;2022-11-02T02:50:38;100817.75;;;15.30
19061;BMP280;9663;48.996;8.334;2022-11-02T02:53:09;100820.31;;;15.30
19061;BMP280;9663;48.996;8.334;2022-11-02T02:55:43;100809.22;;;15.31
19061;BMP280;9663;48.996;8.334;2022-11-02T02:58:17;100813.44;;;15.34
19061;BMP280;9663;48.996;8.334;2022-11-02T03:00:45;100810.06;;;15.32
19061;BMP280;9663;48.996;8.334;2022-11-02T03:03:20;100817.72;;;15.33
19061;BMP280;9663;48.996;8.334;2022-11-02T03:06:18;100820.28;;;15.33
19061;BMP280;9663;48.996;8.334;2022-11-02T03:08:56;100819.44;;;15.30
19061;BMP280;9663;48.996;8.334;2022-11-02T03:11:27;100818.59;;;15.31
19061;BMP280;9663;48.996;8.334;2022-11-02T03:17:00;100829.75;;;15.27
19061;BMP280;9663;48.996;8.334;2022-11-02T03:23:00;100837.47;;;15.21
19061;BMP280;9663;48.996;8.334;2022-11-02T03:28:27;100839.19;;;15.20
19061;BMP280;9663;48.996;8.334;2022-11-02T03:34:00;100835.75;;;15.21
19061;BMP280;9663;48.996;8.334;2022-11-02T03:36:50;100835.84;;;15.17
19061;BMP280;9663;48.996;8.334;2022-11-02T03:39:35;100839.25;;;15.17
19061;BMP280;9663;48.996;8.334;2022-11-02T03:42:03;100835.88;;;15.15
19061;BMP280;9663;48.996;8.334;2022-11-02T03:44:33;100850.28;;;15.18
19061;BMP280;9663;48.996;8.334;2022-11-02T03:47:06;100850.28;;;15.19
19061;BMP280;9663;48.996;8.334;2022-11-02T03:49:34;100834.97;;;15.16
19061;BMP280;9663;48.996;8.334;2022-11-02T03:52:05;100832.38;;;15.19
19061;BMP280;9663;48.996;8.334;2022-11-02T03:54:59;100840.03;;;15.21
19061;BMP280;9663;48.996;8.334;2022-11-02T03:57:35;100835.69;;;15.27
19061;BMP280;9663;48.996;8.334;2022-11-02T04:00:11;100839.88;;;15.31
19061;BMP280;9663;48.996;8.334;2022-11-02T04:02:40;100844.13;;;15.34
19061;BMP280;9663;48.996;8.334;2022-11-02T04:05:07;100839.81;;;15.37
19061;BMP280;9663;48.996;8.334;2022-11-02T04:07:36;100841.44;;;15.41
19061;BMP280;9663;48.996;8.334;2022-11-02T04:10:21;100855.00;;;15.44
19061;BMP280;9663;48.996;8.334;2022-11-02T04:12:47;100858.38;;;15.49
19061;BMP280;9663;48.996;8.334;2022-11-02T04:15:31;100856.53;;;15.56
19061;BMP280;9663;48.996;8.334;2022-11-02T04:17:57;100865.03;;;15.59
19061;BMP280;9663;48.996;8.334;2022-11-02T04:20:41;100864.09;;;15.65
19061;BMP280;9663;48.996;8.334;2022-11-02T04:23:07;100866.63;;;15.68
19061;BMP280;9663;48.996;8.334;2022-11-02T04:25:53;100879.38;;;15.69
19061;BMP280;9663;48.996;8.334;2022-11-02T04:28:19;100880.22;;;15.68
19061;BMP280;9663;48.996;8.334;2022-11-02T04:30:45;100885.31;;;15.70
19061;BMP280;9663;48.996;8.334;2022-11-02T04:33:11;100894.63;;;15.74
19061;BMP280;9663;48.996;8.334;2022-11-02T04:36:01;100897.16;;;15.77
19061;BMP280;9663;48.996;8.334;2022-11-02T04:38:28;100900.47;;;15.83
19061;BMP280;9663;48.996;8.334;2022-11-02T04:41:12;100909.69;;;15.93
19061;BMP280;9663;48.996;8.334;2022-11-02T04:43:56;100927.41;;;16.03
19061;BMP280;9663;48.996;8.334;2022-11-02T04:46:24;100933.22;;;16.14
19061;BMP280;9663;48.996;8.334;2022-11-02T04:48:51;100936.53;;;16.22
19061;BMP280;9663;48.996;8.334;2022-11-02T04:51:18;100952.59;;;16.31
19061;BMP280;9663;48.996;8.334;2022-11-02T04:53:46;100946.50;;;16.38
19061;BMP280;9663;48.996;8.334;2022-11-02T04:56:12;100942.94;;;16.47
19061;BMP280;9663;48.996;8.334;2022-11-02T04:58:37;100923.22;;;16.52
19061;BMP280;9663;48.996;8.334;2022-11-02T05:01:13;100928.22;;;16.59
19061;BMP280;9663;48.996;8.334;2022-11-02T05:03:39;100927.25;;;16.65
19061;BMP280;9663;48.996;8.334;2022-11-02T05:06:06;100931.34;;;16.73
19061;BMP280;9663;48.996;8.334;2022-11-02T05:08:32;100938.06;;;16.78
19061;BMP280;9663;48.996;8.334;2022-11-02T05:10:58;100936.25;;;16.83
19061;BMP280;9663;48.996;8.334;2022-11-02T05:13:25;100928.47;;;16.89
19061;BMP280;9663;48.996;8.334;2022-11-02T05:15:55;100944.59;;;16.94
19061;BMP280;9663;48.996;8.334;2022-11-02T05:18:20;100945.41;;;16.96
19061;BMP280;9663;48.996;8.334;2022-11-02T05:20:54;100947.06;;;17.00
19061;BMP280;9663;48.996;8.334;2022-11-02T05:23:21;100936.72;;;17.03
19061;BMP280;9663;48.996;8.334;2022-11-02T05:25:55;100953.81;;;17.04
19061;BMP280;9663;48.996;8.334;2022-11-02T05:28:22;100955.50;;;17.05
19061;BMP280;9663;48.996;8.334;2022-11-02T05:30:48;100963.06;;;17.09
19061;BMP280;9663;48.996;8.334;2022-11-02T05:33:14;100969.88;;;17.12
19061;BMP280;9663;48.996;8.334;2022-11-02T05:35:40;100962.97;;;17.15
19061;BMP280;9663;48.996;8.334;2022-11-02T05:38:06;100959.47;;;17.18
19061;BMP280;9663;48.996;8.334;2022-11-02T05:40:32;100961.19;;;17.20
19061;BMP280;9663;48.996;8.334;2022-11-02T05:43:07;100942.38;;;17.21
19061;BMP280;9663;48.996;8.334;2022-11-02T05:45:34;100960.34;;;17.21
19061;BMP280;9663;48.996;8.334;2022-11-02T05:48:01;100956.91;;;17.21
19061;BMP280;9663;48.996;8.334;2022-11-02T05:50:27;100953.47;;;17.22
19061;BMP280;9663;48.996;8.334;2022-11-02T05:52:53;100962.00;;;17.22
19061;BMP280;9663;48.996;8.334;2022-11-02T05:55:19;100967.09;;;17.24
19061;BMP280;9663;48.996;8.334;2022-11-02T05:57:53;100970.50;;;17.24
19061;BMP280;9663;48.996;8.334;2022-11-02T06:00:20;100975.72;;;17.21
19061;BMP280;9663;48.996;8.334;2022-11-02T06:02:47;100982.53;;;17.21
19061;BMP280;9663;48.996;8.334;2022-11-02T06:05:13;100980.00;;;17.18
19061;BMP280;9663;48.996;8.334;2022-11-02T06:07:38;100987.75;;;17.16
19061;BMP280;9663;48.996;8.334;2022-11-02T06:10:05;100989.56;;;17.10
19061;BMP280;9663;48.996;8.334;2022-11-02T06:12:31;100987.97;;;17.03
19061;BMP280;9663;48.996;8.334;2022-11-02T06:14:57;100996.63;;;16.98
19061;BMP280;9663;48.996;8.334;2022-11-02T06:17:22;100995.91;;;16.91
19061;BMP280;9663;48.996;8.334;2022-11-02T06:19:48;101005.34;;;16.89
19061;BMP280;9663;48.996;8.334;2022-11-02T06:22:14;101010.53;;;16.85
19061;BMP280;9663;48.996;8.334;2022-11-02T06:24:39;101009.75;;;16.81
19061;BMP280;9663;48.996;8.334;2022-11-02T06:27:05;101020.00;;;16.81
19061;BMP280;9663;48.996;8.334;2022-11-02T06:29:31;101023.50;;;16.77
19061;BMP280;9663;48.996;8.334;2022-11-02T06:31:56;101029.50;;;16.75
19061;BMP280;9663;48.996;8.334;2022-11-02T06:34:22;101028.72;;;16.71
19061;BMP280;9663;48.996;8.334;2022-11-02T06:36:47;101034.78;;;16.67
19061;BMP280;9663;48.996;8.334;2022-11-02T06:39:13;101036.47;;;16.67
19061;BMP280;9663;48.996;8.334;2022-11-02T06:41:39;101042.53;;;16.63
19061;BMP280;9663;48.996;8.334;2022-11-02T06:44:04;101047.66;;;16.62
19061;BMP280;9663;48.996;8.334;2022-11-02T06:46:30;101051.16;;;16.58
19061;BMP280;9663;48.996;8.334;2022-11-02T06:48:56;101040.97;;;16.53
19061;BMP280;9663;48.996;8.334;2022-11-02T06:51:23;101041.84;;;16.52
19061;BMP280;9663;48.996;8.334;2022-11-02T06:53:48;101053.00;;;16.50
19061;BMP280;9663;48.996;8.334;2022-11-02T06:56:14;101058.94;;;16.50
19061;BMP280;9663;48.996;8.334;2022-11-02T06:58:40;101058.94;;;16.50
19061;BMP280;9663;48.996;8.334;2022-11-02T07:01:07;101066.63;;;16.52
19061;BMP280;9663;48.996;8.334;2022-11-02T07:03:34;101070.81;;;16.54
19061;BMP280;9663;48.996;8.334;2022-11-02T07:06:00;101078.47;;;16.57
19061;BMP280;9663;48.996;8.334;2022-11-02T07:08:26;101084.38;;;16.61
19061;BMP280;9663;48.996;8.334;2022-11-02T07:10:53;101084.31;;;16.65
19061;BMP280;9663;48.996;8.334;2022-11-02T07:13:19;101083.41;;;16.69
19061;BMP280;9663;48.996;8.334;2022-11-02T07:15:45;101085.00;;;16.77
19061;BMP280;9663;48.996;8.334;2022-11-02T07:18:11;101088.25;;;16.85
19061;BMP280;9663;48.996;8.334;2022-11-02T07:20:37;101096.66;;;16.93
19061;BMP280;9663;48.996;8.334;2022-11-02T07:23:04;101092.28;;;16.98
19061;BMP280;9663;48.996;8.334;2022-11-02T07:25:31;101099.88;;;17.04
19061;BMP280;9663;48.996;8.334;2022-11-02T07:27:59;101098.09;;;17.09
19061;BMP280;9663;48.996;8.334;2022-11-02T07:30:28;101108.28;;;17.13
19061;BMP280;9663;48.996;8.334;2022-11-02T07:32:54;101103.97;;;17.15
19061;BMP280;9663;48.996;8.334;2022-11-02T07:35:20;101103.03;;;17.18
19061;BMP280;9663;48.996;8.334;2022-11-02T07:38:01;101102.22;;;17.19
19061;BMP280;9663;48.996;8.334;2022-11-02T07:40:29;101115.00;;;17.22
19061;BMP280;9663;48.996;8.334;2022-11-02T07:42:56;101112.41;;;17.23
19061;BMP280;9663;48.996;8.334;2022-11-02T07:45:23;101109.84;;;17.23
19061;BMP280;9663;48.996;8.334;2022-11-02T07:47:49;101115.81;;;17.22
19061;BMP280;9663;48.996;8.334;2022-11-02T07:50:18;101117.56;;;17.22
19061;BMP280;9663;48.996;8.334;2022-11-02T07:52:49;101123.50;;;17.24
19061;BMP280;9663;48.996;8.334;2022-11-02T07:55:19;101124.31;;;17.26
19061;BMP280;9663;48.996;8.334;2022-11-02T07:58:00;101125.97;;;17.30
19061;BMP280;9663;48.996;8.334;2022-11-02T08:00:30;101132.72;;;17.34
19061;BMP280;9663;48.996;8.334;2022-11-02T08:02:59;101143.69;;;17.42
19061;BMP280;9663;48.996;8.334;2022-11-02T08:05:27;101140.19;;;17.46
19061;BMP280;9663;48.996;8.334;2022-11-02T08:08:11;101145.25;;;17.49
19061;BMP280;9663;48.996;8.334;2022-11-02T08:10:38;101145.16;;;17.54
19061;BMP280;9663;48.996;8.334;2022-11-02T08:13:06;101152.75;;;17.59
19061;BMP280;9663;48.996;8.334;2022-11-02T08:15:31;101144.97;;;17.63
19061;BMP280;9663;48.996;8.334;2022-11-02T08:18:21;101151.81;;;17.64
19061;BMP280;9663;48.996;8.334;2022-11-02T08:20:48;101144.84;;;17.71
19061;BMP280;9663;48.996;8.334;2022-11-02T08:23:16;101151.56;;;17.76
19061;BMP280;9663;48.996;8.334;2022-11-02T08:25:44;101155.72;;;17.82
19061;BMP280;9663;48.996;8.334;2022-11-02T08:28:27;101153.09;;;17.85
19061;BMP280;9663;48.996;8.334;2022-11-02T08:30:53;101145.28;;;17.91
19061;BMP280;9663;48.996;8.334;2022-11-02T08:33:19;101147.69;;;17.98
19061;BMP280;9663;48.996;8.334;2022-11-02T08:35:47;101142.38;;;18.07
19061;BMP280;9663;48.996;8.334;2022-11-02T08:38:13;101143.97;;;18.14
19061;BMP280;9663;48.996;8.334;2022-11-02T08:40:40;101149.75;;;18.23
19061;BMP280;9663;48.996;8.334;2022-11-02T08:43:09;101146.09;;;18.35
19061;BMP280;9663;48.996;8.334;2022-11-02T08:45:37;101142.41;;;18.46
19061;BMP280;9663;48.996;8.334;2022-11-02T08:48:04;101142.16;;;18.56
19061;BMP280;9663;48.996;8.334;2022-11-02T08:50:30;101148.81;;;18.65
19061;BMP280;9663;48.996;8.334;2022-11-02T08:52:56;101157.25;;;18.70
19061;BMP280;9663;48.996;8.334;2022-11-02T08:55:22;101158.03;;;18.73
19061;BMP280;9663;48.996;8.334;2022-11-02T08:57:54;101166.50;;;18.77
19061;BMP280;9663;48.996;8.334;2022-11-02T09:00:23;101163.06;;;18.78
19061;BMP280;9663;48.996;8.334;2022-11-02T09:03:10;101158.75;;;18.78
19061;BMP280;9663;48.996;8.334;2022-11-02T09:05:46;101161.25;;;18.81
19061;BMP280;9663;48.996;8.334;2022-11-02T09:08:17;101153.47;;;18.85
19061;BMP280;9663;48.996;8.334;2022-11-02T09:10:46;101159.41;;;18.87
19061;BMP280;9663;48.996;8.334;2022-11-02T09:13:14;101163.56;;;18.91
19061;BMP280;9663;48.996;8.334;2022-11-02T09:15:40;101162.56;;;18.98
19061;BMP280;9663;48.996;8.334;2022-11-02T09:18:08;101169.31;;;19.04
19061;BMP280;9663;48.996;8.334;2022-11-02T09:20:34;101165.72;;;19.11
19061;BMP280;9663;48.996;8.334;2022-11-02T09:23:00;101168.94;;;19.19
19061;BMP280;9663;48.996;8.334;2022-11-02T09:25:26;101167.03;;;19.27
19061;BMP280;9663;48.996;8.334;2022-11-02T09:27:56;101178.00;;;19.33
19061;BMP280;9663;48.996;8.334;2022-11-02T09:30:24;101165.88;;;19.38
19061;BMP280;9663;48.996;8.334;2022-11-02T09:32:59;101171.69;;;19.44
19061;BMP280;9663;48.996;8.334;2022-11-02T09:35:27;101170.81;;;19.45
19061;BMP280;9663;48.996;8.334;2022-11-02T09:37:54;101168.13;;;19.50
19061;BMP280;9663;48.996;8.334;2022-11-02T09:40:23;101176.56;;;19.55
19061;BMP280;9663;48.996;8.334;2022-11-02T09:43:25;101175.63;;;19.57
19061;BMP280;9663;48.996;8.334;2022-11-02T09:46:23;101178.97;;;19.61
19061;BMP280;9663;48.996;8.334;2022-11-02T09:48:56;101171.91;;;19.67
19061;BMP280;9663;48.996;8.334;2022-11-02T09:51:38;101175.28;;;19.70
19061;BMP280;9663;48.996;8.334;2022-11-02T09:54:17;101170.94;;;19.72
19061;BMP280;9663;48.996;8.334;2022-11-02T09:56:45;101179.47;;;19.73
19061;BMP280;9663;48.996;8.334;2022-11-02T09:59:18;101171.75;;;19.73
19061;BMP280;9663;48.996;8.334;2022-11-02T10:05:22;101163.16;;;19.74
19061;BMP280;9663;48.996;8.334;2022-11-02T10:08:05;101157.88;;;19.78
19061;BMP280;9663;48.996;8.334;2022-11-02T10:11:03;101163.75;;;19.83
19061;BMP280;9663;48.996;8.334;2022-11-02T10:13:41;101175.50;;;19.93
19061;BMP280;9663;48.996;8.334;2022-11-02T10:16:24;101173.56;;;20.01
19061;BMP280;9663;48.996;8.334;2022-11-02T10:18:52;101168.91;;;20.13
19061;BMP280;9663;48.996;8.334;2022-11-02T10:21:25;101171.22;;;20.22
19061;BMP280;9663;48.996;8.334;2022-11-02T10:23:54;101182.19;;;20.29
19061;BMP280;9663;48.996;8.334;2022-11-02T10:26:27;101169.81;;;20.41
19061;BMP280;9663;48.996;8.334;2022-11-02T10:29:02;101172.84;;;20.54
19061;BMP280;9663;48.996;8.334;2022-11-02T10:31:32;101177.69;;;20.65
19061;BMP280;9663;48.996;8.334;2022-11-02T10:34:28;101176.88;;;20.62
19061;BMP280;9663;48.996;8.334;2022-11-02T10:40:30;101172.94;;;20.79
19061;BMP280;9663;48.996;8.334;2022-11-02T10:43:18;101170.75;;;20.93
19061;BMP280;9663;48.996;8.334;2022-11-02T10:51:09;101172.44;;;21.20
19061;BMP280;9663;48.996;8.334;2022-11-02T10:53:47;101164.84;;;21.15
19061;BMP280;9663;48.996;8.334;2022-11-02T10:56:24;101164.06;;;21.13
19061;BMP280;9663;48.996;8.334;2022-11-02T10:59:19;101162.63;;;21.05
19061;BMP280;9663;48.996;8.334;2022-11-02T11:04:29;101162.97;;;21.20
19061;BMP280;9663;48.996;8.334;2022-11-02T11:06:57;101164.53;;;21.50
19061;BMP280;9663;48.996;8.334;2022-11-02T11:09:35;101163.00;;;21.69
19061;BMP280;9663;48.996;8.334;2022-11-02T11:12:25;101151.22;;;22.07
19061;BMP280;9663;48.996;8.334;2022-11-02T11:14:59;101150.75;;;23.27
19061;BMP280;9663;48.996;8.334;2022-11-02T11:17:35;101137.50;;;24.10
19061;BMP280;9663;48.996;8.334;2022-11-02T11:20:07;101136.31;;;24.54
19061;BMP280;9663;48.996;8.334;2022-11-02T11:23:17;101140.47;;;24.40
19061;BMP280;9663;48.996;8.334;2022-11-02T11:25:55;101129.03;;;24.97
19061;BMP280;9663;48.996;8.334;2022-11-02T11:28:52;101124.31;;;26.03
19061;BMP280;9663;48.996;8.334;2022-11-02T11:31:18;101120.22;;;27.05
19061;BMP280;9663;48.996;8.334;2022-11-02T11:33:50;101113.63;;;27.84
19061;BMP280;9663;48.996;8.334;2022-11-02T11:36:35;101097.81;;;28.40
19061;BMP280;9663;48.996;8.334;2022-11-02T11:39:25;101098.78;;;29.04
19061;BMP280;9663;48.996;8.334;2022-11-02T11:41:52;101088.28;;;29.80
19061;BMP280;9663;48.996;8.334;2022-11-02T11:44:19;101088.41;;;30.14
19061;BMP280;9663;48.996;8.334;2022-11-02T11:46:55;101079.31;;;30.43
19061;BMP280;9663;48.996;8.334;2022-11-02T11:49:33;101073.16;;;30.55
19061;BMP280;9663;48.996;8.334;2022-11-02T11:52:02;101069.94;;;30.51
19061;BMP280;9663;48.996;8.334;2022-11-02T11:54:30;101076.47;;;30.46
19061;BMP280;9663;48.996;8.334;2022-11-02T11:56:58;101079.00;;;30.81
19061;BMP280;9663;48.996;8.334;2022-11-02T11:59:43;101071.81;;;31.06
19061;BMP280;9663;48.996;8.334;2022-11-02T12:02:35;101089.75;;;30.89
19061;BMP280;9663;48.996;8.334;2022-11-02T12:05:16;101078.84;;;30.72
19061;BMP280;9663;48.996;8.334;2022-11-02T12:11:21;101067.84;;;30.33
19061;BMP280;9663;48.996;8.334;2022-11-02T12:14:12;101068.63;;;30.46
19061;BMP280;9663;48.996;8.334;2022-11-02T12:22:54;101051.94;;;29.75
19061;BMP280;9663;48.996;8.334;2022-11-02T12:28:52;101046.88;;;27.26
19061;BMP280;9663;48.996;8.334;2022-11-02T12:31:48;101056.13;;;26.28
19061;BMP280;9663;48.996;8.334;2022-11-02T12:34:55;101064.81;;;25.49
19061;BMP280;9663;48.996;8.334;2022-11-02T12:40:42;101057.72;;;24.35
19061;BMP280;9663;48.996;8.334;2022-11-02T12:43:38;101065.22;;;23.86
19061;BMP280;9663;48.996;8.334;2022-11-02T12:46:25;101066.00;;;23.50
19061;BMP280;9663;48.996;8.334;2022-11-02T12:51:54;101049.72;;;22.89
19061;BMP280;9663;48.996;8.334;2022-11-02T12:54:55;101052.75;;;22.59
19061;BMP280;9663;48.996;8.334;2022-11-02T12:57:26;101044.69;;;22.45
19061;BMP280;9663;48.996;8.334;2022-11-02T13:00:00;101046.13;;;22.30
19061;BMP280;9663;48.996;8.334;2022-11-02T13:05:41;101043.81;;;22.02
19061;BMP280;9663;48.996;8.334;2022-11-02T13:10:43;101039.97;;;21.90
19061;BMP280;9663;48.996;8.334;2022-11-02T13:13:16;101033.22;;;21.86
19061;BMP280;9663;48.996;8.334;2022-11-02T13:15:45;101039.34;;;21.84
19061;BMP280;9663;48.996;8.334;2022-11-02T13:21:36;101036.44;;;21.70
19061;BMP280;9663;48.996;8.334;2022-11-02T13:24:12;101030.53;;;21.67
19061;BMP280;9663;48.996;8.334;2022-11-02T13:26:42;101026.38;;;21.63
19061;BMP280;9663;48.996;8.334;2022-11-02T13:29:44;101029.25;;;21.55
19061;BMP280;9663;48.996;8.334;2022-11-02T13:32:39;101030.47;;;21.45
19061;BMP280;9663;48.996;8.334;2022-11-02T13:35:27;101024.53;;;21.43
19061;BMP280;9663;48.996;8.334;2022-11-02T13:38:22;101023.78;;;21.40
19061;BMP280;9663;48.996;8.334;2022-11-02T13:41:17;101015.19;;;21.40
19061;BMP280;9663;48.996;8.334;2022-11-02T13:44:13;101013.44;;;21.40
19061;BMP280;9663;48.996;8.334;2022-11-02T13:49:39;101021.19;;;21.40
19061;BMP280;9663;48.996;8.334;2022-11-02T13:52:13;101013.44;;;21.40
19061;BMP280;9663;48.996;8.334;2022-11-02T13:54:47;101013.41;;;21.42
19061;BMP280;9663;48.996;8.334;2022-11-02T13:57:38;101010.91;;;21.39
19061;BMP280;9663;48.996;8.334;2022-11-02T14:00:30;101016.88;;;21.41
19061;BMP280;9663;48.996;8.334;2022-11-02T14:03:06;101015.84;;;21.46
19061;BMP280;9663;48.996;8.334;2022-11-02T14:05:49;101014.00;;;21.49
19061;BMP280;9663;48.996;8.334;2022-11-02T14:16:45;100997.72;;;21.47
19061;BMP280;9663;48.996;8.334;2022-11-02T14:38:35;100997.03;;;21.42
19061;BMP280;9663;48.996;8.334;2022-11-02T14:44:24;100988.03;;;21.54
19061;BMP280;9663;48.996;8.334;2022-11-02T14:46:57;100989.78;;;21.75
19061;BMP280;9663;48.996;8.334;2022-11-02T14:49:30;100981.66;;;22.06
19061;BMP280;9663;48.996;8.334;2022-11-02T14:55:01;100968.44;;;22.74
19061;BMP280;9663;48.996;8.334;2022-11-02T14:57:41;100965.59;;;22.80
19061;BMP280;9663;48.996;8.334;2022-11-02T15:00:20;100958.16;;;22.73
19061;BMP280;9663;48.996;8.334;2022-11-02T15:02:47;100965.47;;;22.64
19061;BMP280;9663;48.996;8.334;2022-11-02T15:05:33;100958.28;;;22.50
19061;BMP280;9663;48.996;8.334;2022-11-02T15:08:28;100967.53;;;22.36
19061;BMP280;9663;48.996;8.334;2022-11-02T15:10:56;100958.31;;;22.29
19061;BMP280;9663;48.996;8.334;2022-11-02T15:13:32;100957.00;;;22.19
19061;BMP280;9663;48.996;8.334;2022-11-02T15:18:31;100954.50;;;21.96
19061;BMP280;9663;48.996;8.334;2022-11-02T15:24:18;100953.28;;;21.62
19061;BMP280;9663;48.996;8.334;2022-11-02T15:26:54;100955.25;;;21.56
19061;BMP280;9663;48.996;8.334;2022-11-02T15:29:34;100955.72;;;21.44
19061;BMP280;9663;48.996;8.334;2022-11-02T15:32:04;100955.28;;;21.32
19061;BMP280;9663;48.996;8.334;2022-11-02T15:34:44;100961.00;;;21.17
19061;BMP280;9663;48.996;8.334;2022-11-02T15:37:21;100949.50;;;21.02
19061;BMP280;9663;48.996;8.334;2022-11-02T15:39:57;100961.13;;;20.90
19061;BMP280;9663;48.996;8.334;2022-11-02T15:42:47;100959.13;;;20.73
19061;BMP280;9663;48.996;8.334;2022-11-02T15:46:02;100950.31;;;20.55
19061;BMP280;9663;48.996;8.334;2022-11-02T15:54:43;100956.19;;;20.08
19061;BMP280;9663;48.996;8.334;2022-11-02T16:00:18;100950.31;;;19.76
19061;BMP280;9663;48.996;8.334;2022-11-02T16:02:50;100954.16;;;19.63
19061;BMP280;9663;48.996;8.334;2022-11-02T16:05:24;100952.81;;;19.50
19061;BMP280;9663;48.996;8.334;2022-11-02T16:07:55;100948.97;;;19.36
19061;BMP280;9663;48.996;8.334;2022-11-02T16:13:18;100950.69;;;19.07
19061;BMP280;9663;48.996;8.334;2022-11-02T16:15:48;100956.94;;;18.97
19061;BMP280;9663;48.996;8.334;2022-11-02T16:18:33;100952.09;;;18.85
19061;BMP280;9663;48.996;8.334;2022-11-02T16:21:02;100938.72;;;18.74
19061;BMP280;9663;48.996;8.334;2022-11-02T16:23:33;100932.09;;;18.66
19061;BMP280;9663;48.996;8.334;2022-11-02T16:26:03;100944.34;;;18.56
19061;BMP280;9663;48.996;8.334;2022-11-02T16:28:31;100941.16;;;18.47
19061;BMP280;9663;48.996;8.334;2022-11-02T16:36:08;100949.59;;;18.19
19061;BMP280;9663;48.996;8.334;2022-11-02T16:38:36;100942.06;;;18.10
19061;BMP280;9663;48.996;8.334;2022-11-02T16:41:07;100949.13;;;18.02
19061;BMP280;9663;48.996;8.334;2022-11-02T16:43:35;100935.59;;;17.94
19061;BMP280;9663;48.996;8.334;2022-11-02T16:46:05;100938.34;;;17.87
19061;BMP280;9663;48.996;8.334;2022-11-02T16:48:32;100936.00;;;17.78